Time;durP1;ratioP1;P1;durP2;ratioP2;P2;SDS_P1;SDS_P2;PMS_P1;PMS_P2;Temp;Humidity;BMP_temperature;BMP_pressure;BME280_temperature;BME280_humidity;BME280_pressure;Samples;Min_cycle;Max_cycle;Signal;HPM_P1;HPM_P2
2022/08/07 00:01:21;;;;;;;8.48;2.22;;;25.50;81.60;;;;;;5081205;28;20017;-72
2022/08/07 00:03:47;;;;;;;5.00;2.42;;;25.50;81.70;;;;;;5079499;28;20392;-72
2022/08/07 00:06:13;;;;;;;4.07;2.10;;;25.50;82.00;;;;;;5090860;28;20028;-72
2022/08/07 00:08:39;;;;;;;5.13;2.00;;;25.50;81.50;;;;;;5088003;28;20028;-72
2022/08/07 00:11:05;;;;;;;7.32;2.15;;;25.40;81.60;;;;;;5093001;28;20030;-72
2022/08/07 00:13:32;;;;;;;4.80;2.45;;;25.40;81.70;;;;;;5083575;28;20458;-72
2022/08/07 00:15:58;;;;;;;4.05;1.85;;;25.40;81.80;;;;;;5084260;28;20354;-71
2022/08/07 00:18:26;;;;;;;4.70;2.10;;;25.30;81.80;;;;;;5096958;28;20062;-72
2022/08/07 00:20:55;;;;;;;4.55;2.10;;;25.30;82.50;;;;;;5085469;28;20028;-72
2022/08/07 00:23:21;;;;;;;4.53;2.15;;;25.20;82.20;;;;;;5078120;28;20054;-72
2022/08/07 00:25:48;;;;;;;5.72;3.28;;;25.10;82.80;;;;;;5095583;28;20400;-71
2022/08/07 00:28:14;;;;;;;4.32;2.38;;;25.10;83.80;;;;;;5096203;28;20032;-72
2022/08/07 00:30:40;;;;;;;4.65;2.58;;;25.00;84.00;;;;;;5088948;28;20021;-72
2022/08/07 00:33:06;;;;;;;4.35;2.20;;;24.90;84.60;;;;;;5086770;28;20070;-72
2022/08/07 00:35:33;;;;;;;3.17;2.00;;;24.90;84.30;;;;;;5080177;28;20017;-72
2022/08/07 00:37:59;;;;;;;5.95;1.88;;;24.80;84.80;;;;;;5080905;28;20028;-72
2022/08/07 00:40:27;;;;;;;3.05;2.00;;;24.80;86.30;;;;;;5081554;28;20515;-73
2022/08/07 00:42:53;;;;;;;3.90;1.77;;;24.60;85.90;;;;;;5078224;28;20028;-74
2022/08/07 00:45:20;;;;;;;5.15;2.30;;;24.60;85.20;;;;;;5082430;28;20028;-74
2022/08/07 00:47:47;;;;;;;5.57;2.50;;;24.60;85.10;;;;;;5093675;28;20031;-73
2022/08/07 00:50:13;;;;;;;7.15;2.53;;;24.60;85.20;;;;;;5081794;28;20098;-74
2022/08/07 00:52:39;;;;;;;4.20;2.22;;;24.60;85.50;;;;;;5081557;28;20035;-74
2022/08/07 00:55:05;;;;;;;4.95;2.33;;;24.50;85.60;;;;;;5080524;28;20500;-74
2022/08/07 00:57:31;;;;;;;6.45;1.88;;;24.50;85.60;;;;;;5078393;28;20033;-74
2022/08/07 00:59:57;;;;;;;5.50;2.00;;;24.50;85.90;;;;;;5091090;28;20023;-74
2022/08/07 01:02:24;;;;;;;8.73;2.22;;;24.40;86.30;;;;;;5083311;28;20485;-74
2022/08/07 01:04:50;;;;;;;3.88;2.20;;;24.40;86.30;;;;;;5078576;28;20103;-73
2022/08/07 01:07:20;;;;;;;3.97;2.40;;;24.30;86.90;;;;;;5085503;28;20020;-74
2022/08/07 01:09:46;;;;;;;2.88;1.73;;;24.30;87.30;;;;;;5082302;28;20025;-74
2022/08/07 01:12:16;;;;;;;3.40;2.13;;;24.20;88.10;;;;;;5081150;28;20094;-74
2022/08/07 01:14:42;;;;;;;4.50;2.60;;;24.10;88.70;;;;;;5084584;28;20052;-74
2022/08/07 01:17:09;;;;;;;6.65;1.95;;;24.00;89.40;;;;;;5086272;28;20838;-74
2022/08/07 01:19:36;;;;;;;7.25;2.80;;;23.90;90.10;;;;;;5082857;28;20041;-74
2022/08/07 01:22:02;;;;;;;6.22;2.47;;;23.90;90.40;;;;;;5093800;28;20031;-74
2022/08/07 01:24:29;;;;;;;9.93;2.60;;;23.70;90.90;;;;;;5076415;28;20066;-74
2022/08/07 01:26:55;;;;;;;5.78;2.50;;;23.70;91.20;;;;;;5083363;28;20024;-74
2022/08/07 01:29:26;;;;;;;3.45;2.35;;;23.60;91.40;;;;;;5084737;28;20016;-73
2022/08/07 01:31:52;;;;;;;7.20;2.80;;;23.50;91.70;;;;;;5097419;28;20091;-74
2022/08/07 01:34:19;;;;;;;6.35;2.22;;;23.50;92.00;;;;;;5096283;28;20055;-74
2022/08/07 01:36:47;;;;;;;3.42;2.22;;;23.40;92.30;;;;;;5089940;28;20027;-74
2022/08/07 01:39:13;;;;;;;7.60;2.78;;;23.30;92.40;;;;;;5092404;28;20030;-74
2022/08/07 01:41:42;;;;;;;8.23;2.70;;;23.30;92.80;;;;;;5079133;28;20024;-74
2022/08/07 01:44:09;;;;;;;4.03;2.72;;;23.20;93.20;;;;;;5084399;28;20477;-74
2022/08/07 01:46:35;;;;;;;5.45;2.30;;;23.20;93.30;;;;;;5084434;28;20043;-74
2022/08/07 01:49:01;;;;;;;6.30;2.60;;;23.10;93.40;;;;;;5080435;28;20028;-74
2022/08/07 01:51:28;;;;;;;5.75;2.80;;;23.10;94.00;;;;;;5082816;28;20122;-73
2022/08/07 01:53:57;;;;;;;6.00;2.63;;;23.00;94.10;;;;;;5093088;28;20043;-74
2022/08/07 01:56:32;;;;;;;5.50;2.83;;;23.00;94.10;;;;;;5077178;28;20016;-74
2022/08/07 01:59:13;;;;;;;6.88;3.50;;;23.00;94.30;;;;;;5088949;28;20069;-73
2022/08/07 02:01:43;;;;;;;4.82;2.80;;;23.00;94.80;;;;;;5097080;28;20480;-74
2022/08/07 02:04:22;;;;;;;4.93;3.53;;;22.90;95.00;;;;;;5100152;28;20028;-73
2022/08/07 02:06:49;;;;;;;7.78;2.85;;;22.90;94.90;;;;;;5081619;28;20068;-73
2022/08/07 02:09:17;;;;;;;9.32;3.15;;;22.90;95.40;;;;;;5080486;28;20040;-73
2022/08/07 02:11:47;;;;;;;6.35;3.60;;;22.90;95.70;;;;;;5080975;28;20020;-74
2022/08/07 02:14:14;;;;;;;10.20;3.33;;;22.90;95.90;;;;;;5093598;28;20028;-73
2022/08/07 02:16:42;;;;;;;6.57;3.05;;;22.90;96.00;;;;;;5101984;28;20158;-73
2022/08/07 02:19:12;;;;;;;4.43;3.05;;;22.90;96.40;;;;;;5102134;28;20385;-74
2022/08/07 02:21:39;;;;;;;7.55;3.42;;;22.80;96.60;;;;;;5098771;28;20062;-73
2022/08/07 02:24:06;;;;;;;6.10;3.08;;;22.80;96.60;;;;;;5082190;28;20039;-74
2022/08/07 02:26:36;;;;;;;8.65;2.95;;;22.80;96.90;;;;;;5084031;28;20109;-74
2022/08/07 02:29:06;;;;;;;6.63;3.00;;;22.80;97.10;;;;;;5083994;28;20041;-73
2022/08/07 02:31:33;;;;;;;7.35;2.78;;;22.80;97.00;;;;;;5085890;28;20397;-73
2022/08/07 02:34:01;;;;;;;4.28;3.28;;;22.80;97.30;;;;;;5084988;28;20028;-74
2022/08/07 02:36:29;;;;;;;7.47;3.67;;;22.70;97.50;;;;;;5081483;28;20024;-74
2022/08/07 02:38:57;;;;;;;6.88;2.78;;;22.70;97.60;;;;;;5099299;28;20031;-74
2022/08/07 02:41:24;;;;;;;9.13;3.50;;;22.60;97.60;;;;;;5096829;28;20035;-74
2022/08/07 02:43:52;;;;;;;5.45;3.55;;;22.60;97.70;;;;;;5097137;28;20032;-74
2022/08/07 02:46:21;;;;;;;9.23;3.38;;;22.60;97.90;;;;;;5091163;28;20025;-74
2022/08/07 02:48:47;;;;;;;5.38;3.20;;;22.50;98.00;;;;;;5089840;28;20546;-74
2022/08/07 02:51:18;;;;;;;6.85;3.03;;;22.50;98.00;;;;;;5094831;28;20028;-74
2022/08/07 02:53:49;;;;;;;8.40;3.03;;;22.50;97.90;;;;;;5080186;28;20049;-74
2022/08/07 02:56:18;;;;;;;4.00;2.97;;;22.40;98.00;;;;;;5088332;28;20047;-74
2022/08/07 02:58:45;;;;;;;7.18;3.30;;;22.40;97.90;;;;;;5100180;28;20077;-73
2022/08/07 03:01:13;;;;;;;6.82;3.00;;;22.40;97.90;;;;;;5073815;28;20056;-74
2022/08/07 03:03:39;;;;;;;6.45;3.10;;;22.40;97.90;;;;;;5086298;28;20036;-74
2022/08/07 03:06:06;;;;;;;7.63;3.40;;;22.30;97.60;;;;;;5082360;28;20051;-74
2022/08/07 03:08:35;;;;;;;9.00;3.65;;;22.40;97.70;;;;;;5087445;28;20031;-73
2022/08/07 03:11:01;;;;;;;7.63;2.80;;;22.30;97.80;;;;;;5084609;28;20074;-74
2022/08/07 03:13:28;;;;;;;5.53;3.13;;;22.30;97.70;;;;;;5096334;28;20024;-74
2022/08/07 03:15:54;;;;;;;5.15;3.35;;;22.20;97.60;;;;;;5083070;28;20029;-74
2022/08/07 03:18:21;;;;;;;8.07;3.60;;;22.20;97.70;;;;;;5093778;28;20030;-74
2022/08/07 03:20:47;;;;;;;4.53;2.95;;;22.20;97.60;;;;;;5101804;28;20032;-74
2022/08/07 03:23:14;;;;;;;5.72;2.80;;;22.20;97.70;;;;;;5092494;28;20020;-74
2022/08/07 03:25:42;;;;;;;6.55;3.08;;;22.20;97.40;;;;;;5094538;28;20027;-73
2022/08/07 03:28:15;;;;;;;4.47;2.78;;;22.10;97.20;;;;;;5085233;28;20020;-74
2022/08/07 03:30:42;;;;;;;6.60;2.40;;;22.20;97.10;;;;;;5083599;28;20047;-75
2022/08/07 03:33:09;;;;;;;3.30;2.70;;;22.10;96.90;;;;;;5089862;28;20027;-74
2022/08/07 03:35:38;;;;;;;6.50;3.17;;;22.20;96.70;;;;;;5084950;28;20024;-74
2022/08/07 03:38:07;;;;;;;5.50;2.58;;;22.20;96.70;;;;;;5098379;28;20043;-74
2022/08/07 03:40:33;;;;;;;4.93;2.92;;;22.20;96.90;;;;;;5095224;28;20449;-74
2022/08/07 03:43:00;;;;;;;9.50;2.78;;;22.20;96.80;;;;;;5093115;28;20029;-74
2022/08/07 03:45:28;;;;;;;6.38;2.90;;;22.10;96.90;;;;;;5087778;28;20119;-74
2022/08/07 03:47:55;;;;;;;8.88;2.90;;;22.10;97.00;;;;;;5079025;28;20021;-74
2022/08/07 03:50:23;;;;;;;6.00;2.55;;;22.00;97.20;;;;;;5095978;28;20020;-74
2022/08/07 03:52:51;;;;;;;4.90;2.85;;;22.00;97.30;;;;;;5087739;28;20497;-74
2022/08/07 03:55:17;;;;;;;4.50;2.63;;;21.90;97.50;;;;;;5080232;28;20129;-73
2022/08/07 03:57:45;;;;;;;4.63;2.83;;;21.90;97.70;;;;;;5071596;28;20090;-74
2022/08/07 04:00:13;;;;;;;3.92;2.90;;;21.80;98.00;;;;;;5088036;28;20012;-74
2022/08/07 04:02:41;;;;;;;5.90;2.60;;;21.80;98.10;;;;;;5094436;28;20033;-74
2022/08/07 04:05:08;;;;;;;3.50;2.88;;;21.70;98.30;;;;;;5076829;28;20028;-74
2022/08/07 04:07:34;;;;;;;6.03;2.97;;;21.70;98.40;;;;;;5079121;28;20086;-74
2022/08/07 04:10:02;;;;;;;7.75;2.70;;;21.70;98.40;;;;;;5083962;28;20055;-74
2022/08/07 04:12:30;;;;;;;8.75;3.63;;;21.60;98.30;;;;;;5096267;28;20020;-74
2022/08/07 04:14:58;;;;;;;5.85;3.47;;;21.70;98.50;;;;;;5081721;28;20532;-74
2022/08/07 04:17:24;;;;;;;10.07;3.10;;;21.60;98.40;;;;;;5091632;28;20027;-74
2022/08/07 04:19:50;;;;;;;5.43;2.83;;;21.60;98.50;;;;;;5088870;28;20493;-74
2022/08/07 04:22:17;;;;;;;7.70;3.00;;;21.50;98.40;;;;;;5079870;28;20052;-74
2022/08/07 04:24:43;;;;;;;4.40;2.50;;;21.50;98.30;;;;;;5082896;28;20024;-74
2022/08/07 04:27:09;;;;;;;7.78;3.13;;;21.50;98.20;;;;;;5084668;28;20082;-74
2022/08/07 04:29:35;;;;;;;5.32;3.00;;;21.50;98.20;;;;;;5095138;28;20502;-74
2022/08/07 04:32:02;;;;;;;5.65;3.00;;;21.50;98.20;;;;;;5085006;28;20024;-74
2022/08/07 04:34:28;;;;;;;8.18;3.30;;;21.40;98.20;;;;;;5096763;28;20073;-74
2022/08/07 04:36:55;;;;;;;5.47;3.30;;;21.50;98.40;;;;;;5087545;28;20430;-73
2022/08/07 04:39:20;;;;;;;3.45;2.60;;;21.40;98.30;;;;;;5096106;28;20035;-74
2022/08/07 04:41:46;;;;;;;3.75;2.70;;;21.40;98.50;;;;;;5097136;28;20487;-73
2022/08/07 04:44:14;;;;;;;4.32;2.88;;;21.40;98.40;;;;;;5097372;28;20059;-74
2022/08/07 04:46:58;;;;;;;5.95;2.65;;;21.40;98.40;;;;;;5094334;28;20032;-74
2022/08/07 04:49:36;;;;;;;3.80;2.50;;;21.40;98.40;;;;;;5094075;28;20036;-74
2022/08/07 04:52:20;;;;;;;5.20;2.83;;;21.40;98.70;;;;;;5078848;28;20032;-74
2022/08/07 04:54:58;;;;;;;5.30;2.50;;;21.40;98.50;;;;;;5077404;28;20053;-73
2022/08/07 04:57:52;;;;;;;7.20;3.05;;;21.30;98.40;;;;;;5095881;28;20023;-74
2022/08/07 05:00:45;;;;;;;6.05;2.72;;;21.30;98.50;;;;;;5084861;28;20016;-73
2022/08/07 05:03:24;;;;;;;7.10;3.15;;;21.40;98.50;;;;;;5079702;28;20024;-74
2022/08/07 05:06:05;;;;;;;4.63;2.65;;;21.40;98.60;;;;;;5087303;28;20078;-73
2022/08/07 05:08:59;;;;;;;9.45;2.90;;;21.40;98.50;;;;;;5097427;28;20042;-74
2022/08/07 05:11:34;;;;;;;4.32;3.05;;;21.40;98.50;;;;;;5082540;28;20044;-73
2022/08/07 05:14:11;;;;;;;4.47;2.65;;;21.40;98.50;;;;;;5077340;28;20093;-74
2022/08/07 05:16:39;;;;;;;11.30;3.17;;;21.40;98.60;;;;;;5091319;28;20050;-74
2022/08/07 05:19:12;;;;;;;4.05;2.90;;;21.50;99.00;;;;;;5096777;28;20027;-73
2022/08/07 05:21:46;;;;;;;4.40;3.35;;;21.50;98.60;;;;;;5078651;28;20028;-73
2022/08/07 05:24:18;;;;;;;4.45;3.03;;;21.50;98.60;;;;;;5089775;28;20092;-73
2022/08/07 05:26:47;;;;;;;3.95;2.75;;;21.60;98.60;;;;;;5083115;28;20031;-73
2022/08/07 05:29:14;;;;;;;7.53;3.22;;;21.60;99.30;;;;;;5074280;28;20107;-74
2022/08/07 05:31:43;;;;;;;6.22;2.90;;;21.70;99.10;;;;;;5090554;28;20024;-73
2022/08/07 05:34:15;;;;;;;4.78;2.40;;;21.70;99.40;;;;;;5083820;28;20033;-74
2022/08/07 05:36:47;;;;;;;7.45;3.33;;;21.80;98.60;;;;;;5082807;28;20024;-73
2022/08/07 05:39:15;;;;;;;3.80;2.60;;;21.80;98.50;;;;;;5083487;28;20032;-74
2022/08/07 05:41:42;;;;;;;9.25;3.45;;;21.90;98.90;;;;;;5078414;28;20021;-73
2022/08/07 05:44:09;;;;;;;2.90;2.28;;;21.90;99.20;;;;;;5083602;28;20030;-73
2022/08/07 05:46:36;;;;;;;5.60;2.95;;;21.90;99.60;;;;;;5084530;28;20035;-73
2022/08/07 05:49:05;;;;;;;5.75;3.25;;;22.00;99.30;;;;;;5078733;28;20033;-73
2022/08/07 05:51:31;;;;;;;7.75;2.65;;;22.00;99.90;;;;;;5087309;28;20417;-73
2022/08/07 05:53:57;;;;;;;4.18;3.00;;;22.10;99.90;;;;;;5077554;28;20083;-73
2022/08/07 05:56:25;;;;;;;4.60;2.83;;;22.10;98.40;;;;;;5083890;28;20047;-73
2022/08/07 05:58:51;;;;;;;5.57;2.70;;;22.10;98.60;;;;;;5087908;28;20024;-74
2022/08/07 06:01:19;;;;;;;3.55;2.53;;;22.10;98.60;;;;;;5083630;28;20035;-74
2022/08/07 06:03:52;;;;;;;3.60;2.85;;;22.20;98.80;;;;;;5079181;28;20025;-74
2022/08/07 06:06:19;;;;;;;7.32;2.88;;;22.30;99.10;;;;;;5085947;28;20032;-73
2022/08/07 06:08:46;;;;;;;8.35;2.97;;;22.40;98.20;;;;;;5084616;28;20154;-73
2022/08/07 06:11:12;;;;;;;10.32;3.40;;;22.40;98.20;;;;;;5080805;28;20017;-73
2022/08/07 06:13:39;;;;;;;5.85;2.58;;;22.50;97.80;;;;;;5091752;28;20396;-74
2022/08/07 06:16:09;;;;;;;5.45;3.08;;;22.50;97.90;;;;;;5078838;28;20107;-74
2022/08/07 06:18:36;;;;;;;5.57;3.10;;;22.50;97.60;;;;;;5077320;28;20085;-74
2022/08/07 06:21:03;;;;;;;6.70;2.97;;;22.60;97.70;;;;;;5077565;28;20013;-74
2022/08/07 06:23:31;;;;;;;9.93;3.00;;;22.60;98.40;;;;;;5081829;28;20400;-74
2022/08/07 06:25:58;;;;;;;6.07;2.72;;;22.70;97.90;;;;;;5076219;28;20031;-74
2022/08/07 06:28:24;;;;;;;5.97;2.65;;;22.80;97.60;;;;;;5081579;28;20504;-74
2022/08/07 06:30:50;;;;;;;4.57;2.90;;;22.80;97.40;;;;;;5092070;28;20493;-73
2022/08/07 06:33:17;;;;;;;6.88;2.92;;;22.90;97.40;;;;;;5095444;28;20025;-73
2022/08/07 06:35:43;;;;;;;6.40;2.60;;;22.90;97.20;;;;;;5084108;28;20108;-73
2022/08/07 06:38:09;;;;;;;6.35;3.28;;;23.00;97.20;;;;;;5079179;28;20056;-74
2022/08/07 06:41:03;;;;;;;7.20;2.53;;;23.00;96.90;;;;;;5080377;28;20020;-75
2022/08/07 06:43:34;;;;;;;5.50;3.45;;;23.10;96.60;;;;;;5101706;28;20040;-75
2022/08/07 06:46:01;;;;;;;3.78;3.05;;;23.20;96.70;;;;;;5077268;28;20554;-75
2022/08/07 06:48:27;;;;;;;3.85;2.58;;;23.20;96.20;;;;;;5079695;28;20098;-75
2022/08/07 06:50:58;;;;;;;9.10;3.70;;;23.30;96.30;;;;;;5074442;28;20025;-75
2022/08/07 06:53:25;;;;;;;3.85;2.88;;;23.30;95.30;;;;;;5094896;28;20086;-75
2022/08/07 06:55:53;;;;;;;7.43;2.78;;;23.30;95.20;;;;;;5093680;28;20020;-76
2022/08/07 06:58:21;;;;;;;4.18;2.45;;;23.40;95.30;;;;;;5084759;28;20078;-75
2022/08/07 07:00:48;;;;;;;6.10;2.90;;;23.40;95.30;;;;;;5092081;28;20028;-74
2022/08/07 07:03:15;;;;;;;6.28;3.33;;;23.50;94.70;;;;;;5095592;28;20028;-74
2022/08/07 07:05:41;;;;;;;5.63;2.88;;;23.50;94.30;;;;;;5094175;28;20028;-75
2022/08/07 07:08:07;;;;;;;10.27;3.15;;;23.50;94.70;;;;;;5084777;28;20373;-75
2022/08/07 07:10:34;;;;;;;5.93;2.42;;;23.60;94.80;;;;;;5088896;28;20115;-76
2022/08/07 07:13:15;;;;;;;3.05;2.33;;;23.60;95.00;;;;;;5079066;28;20051;-75
2022/08/07 07:15:46;;;;;;;8.32;2.67;;;23.70;94.80;;;;;;5083011;28;20047;-75
2022/08/07 07:18:24;;;;;;;8.25;3.05;;;23.80;94.90;;;;;;5088489;28;20033;-73
2022/08/07 07:20:58;;;;;;;6.88;2.30;;;23.80;94.80;;;;;;5084214;28;20029;-75
2022/08/07 07:23:32;;;;;;;5.63;2.53;;;23.90;94.50;;;;;;5085887;28;20078;-76
2022/08/07 07:26:04;;;;;;;6.93;2.60;;;24.00;94.50;;;;;;5081332;28;20029;-76
2022/08/07 07:28:38;;;;;;;3.58;2.40;;;24.10;94.90;;;;;;5079600;28;20092;-74
2022/08/07 07:31:13;;;;;;;4.35;2.42;;;24.20;94.10;;;;;;5084438;28;20104;-75
2022/08/07 07:33:40;;;;;;;5.18;2.60;;;24.30;94.10;;;;;;5086937;28;20024;-74
2022/08/07 07:36:08;;;;;;;6.82;2.78;;;24.30;93.60;;;;;;5078950;28;20039;-73
2022/08/07 07:38:34;;;;;;;7.05;2.72;;;24.30;93.90;;;;;;5097481;28;20134;-74
2022/08/07 07:41:02;;;;;;;4.07;2.65;;;24.40;94.00;;;;;;5082441;28;20048;-74
2022/08/07 07:43:30;;;;;;;7.18;3.33;;;24.40;94.10;;;;;;5079048;28;20056;-75
2022/08/07 07:45:59;;;;;;;4.53;2.33;;;24.40;94.00;;;;;;5084634;28;20020;-73
2022/08/07 07:48:26;;;;;;;8.68;2.97;;;24.50;94.20;;;;;;5081064;28;20059;-73
2022/08/07 07:50:54;;;;;;;7.55;2.83;;;24.60;94.80;;;;;;5080619;28;20031;-74
2022/08/07 07:53:22;;;;;;;7.18;2.90;;;24.80;94.30;;;;;;5080630;28;20032;-73
2022/08/07 07:55:54;;;;;;;7.80;2.70;;;24.90;93.90;;;;;;5079436;28;20050;-75
2022/08/07 07:58:21;;;;;;;7.38;2.72;;;25.00;93.50;;;;;;5093047;28;20437;-73
2022/08/07 08:00:49;;;;;;;5.78;2.95;;;25.00;93.80;;;;;;5080754;28;20509;-73
2022/08/07 08:03:18;;;;;;;6.97;2.83;;;25.00;93.60;;;;;;5091522;28;20031;-75
2022/08/07 08:05:44;;;;;;;5.60;2.90;;;25.00;93.80;;;;;;5078997;28;20021;-74
2022/08/07 08:08:11;;;;;;;7.90;2.83;;;25.10;93.90;;;;;;5082397;28;20020;-74
2022/08/07 08:10:38;;;;;;;6.75;3.28;;;25.20;93.70;;;;;;5079583;28;20031;-74
2022/08/07 08:13:06;;;;;;;3.20;2.63;;;25.30;93.70;;;;;;5097590;28;20704;-74
2022/08/07 08:15:36;;;;;;;8.82;3.22;;;25.40;93.60;;;;;;5077059;28;20024;-74
2022/08/07 08:18:04;;;;;;;5.38;2.80;;;25.40;93.70;;;;;;5088185;28;20024;-74
2022/08/07 08:20:33;;;;;;;6.63;3.13;;;25.50;93.50;;;;;;5078852;28;20028;-74
2022/08/07 08:28:34;;;;;;;5.63;3.05;;;25.70;92.70;;;;;;5084902;28;20036;-73
2022/08/07 08:31:02;;;;;;;5.77;2.53;;;25.80;92.20;;;;;;5084850;28;20021;-74
2022/08/07 08:33:31;;;;;;;6.47;2.67;;;25.90;92.00;;;;;;5081782;28;20285;-74
2022/08/07 08:35:57;;;;;;;5.05;2.55;;;26.10;91.30;;;;;;5092440;28;20024;-75
2022/08/07 08:38:32;;;;;;;5.20;2.25;;;26.20;91.40;;;;;;5078784;28;20143;-74
2022/08/07 08:41:13;;;;;;;4.38;2.50;;;26.40;90.30;;;;;;5090959;28;20024;-74
2022/08/07 08:43:57;;;;;;;5.10;2.42;;;26.50;90.00;;;;;;5089744;28;20081;-74
2022/08/07 08:46:47;;;;;;;7.50;2.78;;;26.50;89.50;;;;;;5078034;28;20428;-74
2022/08/07 08:49:32;;;;;;;;;;;26.60;89.00;;;;;;5096522;28;20020;-73
2022/08/07 08:52:28;;;;;;;5.85;2.85;;;26.60;88.40;;;;;;5081742;28;19904;-74
2022/08/07 08:55:09;;;;;;;6.25;2.53;;;26.70;88.70;;;;;;5096897;28;20438;-74
2022/08/07 08:57:43;;;;;;;4.97;2.70;;;26.90;88.30;;;;;;5095392;28;20023;-74
2022/08/07 09:00:10;;;;;;;4.28;2.50;;;27.00;87.70;;;;;;5096331;28;20031;-74
2022/08/07 09:03:01;;;;;;;3.63;2.13;;;27.00;86.60;;;;;;5094655;28;20016;-74
2022/08/07 09:05:45;;;;;;;6.80;2.60;;;27.20;87.30;;;;;;5094564;28;20024;-73
2022/08/07 09:08:32;;;;;;;6.47;2.70;;;27.30;85.30;;;;;;5096389;28;20085;-71
2022/08/07 09:11:18;;;;;;;6.35;2.38;;;27.30;84.50;;;;;;5089491;28;20134;-71
2022/08/07 09:13:57;;;;;;;5.63;2.00;;;27.40;83.30;;;;;;5080602;28;20496;-72
2022/08/07 09:16:45;;;;;;;7.07;2.50;;;27.50;84.10;;;;;;5089354;28;20107;-71
2022/08/07 09:19:37;;;;;;;4.65;1.90;;;27.60;82.80;;;;;;5085098;28;20029;-71
2022/08/07 09:22:06;;;;;;;6.30;2.58;;;27.70;83.20;;;;;;5083823;28;20024;-72
2022/08/07 09:24:52;;;;;;;5.20;2.22;;;27.80;82.70;;;;;;5074990;28;20049;-71
2022/08/07 09:27:50;;;;;;;6.15;2.65;;;27.90;81.30;;;;;;5081921;28;20392;-71
2022/08/07 09:30:16;;;;;;;4.80;2.70;;;28.00;81.80;;;;;;5091096;28;20044;-71
2022/08/07 09:33:05;;;;;;;7.82;2.22;;;28.10;81.30;;;;;;5077811;28;20096;-72
2022/08/07 09:35:50;;;;;;;7.05;2.22;;;28.20;79.80;;;;;;5085685;28;20053;-72
2022/08/07 09:38:30;;;;;;;4.88;2.22;;;28.10;79.70;;;;;;5090373;28;20524;-72
2022/08/07 09:41:29;;;;;;;4.38;2.35;;;28.30;79.60;;;;;;5094842;28;20027;-71
2022/08/07 09:44:17;;;;;;;3.03;1.75;;;28.30;80.00;;;;;;5083214;28;20032;-72
2022/08/07 09:47:10;;;;;;;4.50;1.95;;;28.50;80.00;;;;;;5090206;28;20024;-71
2022/08/07 09:50:03;;;;;;;7.75;2.65;;;28.70;78.40;;;;;;5090656;28;20500;-72
2022/08/07 09:52:55;;;;;;;9.02;2.67;;;28.70;77.20;;;;;;5081396;28;20091;-73
2022/08/07 09:55:43;;;;;;;5.65;2.47;;;28.70;76.00;;;;;;5091823;28;20027;-72
2022/08/07 09:58:37;;;;;;;4.80;2.22;;;28.80;76.30;;;;;;5087879;28;20107;-72
2022/08/07 10:01:16;;;;;;;4.75;2.20;;;28.80;75.70;;;;;;5096180;28;20024;-72
2022/08/07 10:04:10;;;;;;;5.00;2.38;;;28.90;76.10;;;;;;5094965;28;20052;-72
2022/08/07 10:06:55;;;;;;;4.97;2.40;;;29.00;75.30;;;;;;5067373;28;20044;-72
2022/08/07 10:09:51;;;;;;;5.72;2.08;;;29.10;74.70;;;;;;5094899;28;20044;-72
2022/08/07 10:12:45;;;;;;;3.15;1.90;;;29.00;74.20;;;;;;5095879;28;20024;-72
2022/08/07 10:15:32;;;;;;;6.18;2.63;;;29.00;74.10;;;;;;5084071;28;20016;-72
2022/08/07 10:18:05;;;;;;;6.30;2.47;;;29.20;73.20;;;;;;5087953;28;20427;-72
2022/08/07 10:20:48;;;;;;;3.42;2.00;;;29.30;71.60;;;;;;5082738;28;20025;-72
2022/08/07 10:23:20;;;;;;;8.07;2.28;;;29.40;71.70;;;;;;5095573;28;20027;-72
2022/08/07 10:26:04;;;;;;;6.65;1.90;;;29.60;71.10;;;;;;5095466;28;20028;-72
2022/08/07 10:28:42;;;;;;;3.90;2.28;;;29.60;69.60;;;;;;5082673;28;20028;-72
2022/08/07 10:31:26;;;;;;;6.32;2.33;;;29.70;70.30;;;;;;5089646;28;20020;-71
2022/08/07 10:34:10;;;;;;;7.53;2.13;;;29.70;69.30;;;;;;5096063;28;20017;-72
2022/08/07 10:37:06;;;;;;;4.65;1.80;;;29.60;67.10;;;;;;5096844;28;20039;-72
2022/08/07 10:40:10;;;;;;;4.53;2.08;;;29.60;67.40;;;;;;5100179;28;20491;-72
2022/08/07 10:43:08;;;;;;;6.22;2.40;;;29.70;68.60;;;;;;5090251;28;20047;-72
2022/08/07 10:45:37;;;;;;;6.18;2.25;;;29.90;68.70;;;;;;5095131;28;20062;-72
2022/08/07 10:48:40;;;;;;;4.82;1.90;;;30.10;67.50;;;;;;5089361;28;20549;-72
2022/08/07 10:51:20;;;;;;;3.92;2.13;;;30.10;67.30;;;;;;5083510;28;20028;-72
2022/08/07 10:54:04;;;;;;;7.72;2.03;;;30.10;67.30;;;;;;5093312;28;20056;-72
2022/08/07 10:57:14;;;;;;;4.70;2.10;;;30.20;68.00;;;;;;5099469;28;20028;-72
2022/08/07 10:59:52;;;;;;;2.47;1.65;;;30.40;67.30;;;;;;5097512;28;20024;-72
2022/08/07 11:02:45;;;;;;;5.53;2.17;;;30.30;66.90;;;;;;5095556;28;20447;-72
2022/08/07 11:05:43;;;;;;;6.85;2.63;;;30.50;67.10;;;;;;5088129;28;20437;-72
2022/08/07 11:08:13;;;;;;;4.38;2.35;;;30.50;65.60;;;;;;5090910;28;20025;-73
2022/08/07 11:11:20;;;;;;;4.43;2.03;;;30.50;65.40;;;;;;5098842;28;20392;-72
2022/08/07 11:13:51;;;;;;;4.50;1.83;;;30.40;65.70;;;;;;5091624;28;20074;-72
2022/08/07 11:16:20;;;;;;;2.22;1.73;;;30.40;65.80;;;;;;5093730;28;20421;-72
2022/08/07 11:19:15;;;;;;;3.35;2.10;;;30.50;65.40;;;;;;5093304;28;20059;-72
2022/08/07 11:22:05;;;;;;;3.35;1.83;;;30.70;64.80;;;;;;5093773;28;20031;-72
2022/08/07 11:24:45;;;;;;;;;;;30.70;64.50;;;;;;5088229;28;20026;-73
2022/08/07 11:27:17;;;;;;;3.90;2.03;;;30.90;65.40;;;;;;5092377;28;19905;-72
2022/08/07 11:29:51;;;;;;;4.18;2.08;;;31.00;65.60;;;;;;5096457;28;20035;-72
2022/08/07 11:32:42;;;;;;;3.55;2.20;;;31.10;62.80;;;;;;5090108;28;21144;-73
2022/08/07 11:35:09;;;;;;;4.35;1.83;;;31.10;63.30;;;;;;5098624;28;20500;-72
2022/08/07 11:37:47;;;;;;;2.55;1.80;;;31.10;62.90;;;;;;5099045;28;20121;-71
2022/08/07 11:40:13;;;;;;;7.82;2.47;;;31.00;61.40;;;;;;5084205;28;20019;-71
2022/08/07 11:42:49;;;;;;;5.68;2.00;;;30.80;61.40;;;;;;5094696;28;20028;-72
2022/08/07 11:45:40;;;;;;;6.13;2.72;;;30.80;61.50;;;;;;5094194;28;20016;-72
2022/08/07 11:48:39;;;;;;;5.03;2.13;;;30.90;61.90;;;;;;5092599;28;20070;-72
2022/08/07 11:51:32;;;;;;;4.78;2.05;;;31.00;63.20;;;;;;5093693;28;20420;-72
2022/08/07 11:54:15;;;;;;;3.05;1.90;;;31.10;60.50;;;;;;5084756;28;20058;-72
2022/08/07 11:56:56;;;;;;;6.70;2.17;;;31.20;60.80;;;;;;5086009;28;20428;-72
2022/08/07 11:59:40;;;;;;;4.70;2.10;;;31.20;61.00;;;;;;5084051;28;20028;-73
2022/08/07 12:02:32;;;;;;;8.73;2.20;;;31.10;59.90;;;;;;5085453;28;20027;-74
2022/08/07 12:05:06;;;;;;;12.90;2.33;;;31.10;59.90;;;;;;5092147;28;20054;-74
2022/08/07 12:07:59;;;;;;;8.52;2.30;;;31.20;60.80;;;;;;5079831;28;20130;-74
2022/08/07 12:10:46;;;;;;;4.50;1.67;;;31.30;59.20;;;;;;5076904;28;20047;-74
2022/08/07 12:13:22;;;;;;;3.28;1.65;;;31.50;61.80;;;;;;5098166;28;20515;-74
2022/08/07 12:15:55;;;;;;;6.82;1.83;;;31.70;61.50;;;;;;5093093;28;20015;-73
2022/08/07 12:18:26;;;;;;;6.78;2.33;;;31.80;58.60;;;;;;5094273;28;20035;-73
2022/08/07 12:21:11;;;;;;;4.05;2.05;;;32.00;58.90;;;;;;5097899;28;20015;-74
2022/08/07 12:23:58;;;;;;;5.47;1.83;;;32.10;59.00;;;;;;5093939;28;20509;-74
2022/08/07 12:26:37;;;;;;;6.45;1.77;;;32.20;58.70;;;;;;5085234;28;20012;-74
2022/08/07 12:29:07;;;;;;;3.08;1.67;;;32.20;57.80;;;;;;5092375;28;20066;-74
2022/08/07 12:32:02;;;;;;;4.05;2.08;;;32.10;56.90;;;;;;5094265;28;20020;-73
2022/08/07 12:34:31;;;;;;;5.50;1.98;;;32.00;56.70;;;;;;5085125;28;20099;-74
2022/08/07 12:36:59;;;;;;;6.47;2.00;;;31.80;56.10;;;;;;5080983;28;20017;-74
2022/08/07 12:39:27;;;;;;;4.05;1.80;;;31.90;56.70;;;;;;5080657;28;20535;-74
2022/08/07 12:41:54;;;;;;;4.60;1.80;;;32.00;56.20;;;;;;5078906;28;20563;-74
2022/08/07 12:44:23;;;;;;;3.05;1.92;;;32.30;57.90;;;;;;5091483;28;20024;-74
2022/08/07 12:47:09;;;;;;;6.25;2.63;;;32.50;57.30;;;;;;5096943;28;20040;-74
2022/08/07 12:49:44;;;;;;;4.72;1.85;;;32.50;55.70;;;;;;5093954;28;20429;-74
2022/08/07 12:52:15;;;;;;;7.22;1.83;;;32.40;55.60;;;;;;5097349;28;20027;-74
2022/08/07 12:54:51;;;;;;;4.88;1.73;;;32.50;55.30;;;;;;5092463;28;20043;-73
2022/08/07 12:57:22;;;;;;;3.20;1.50;;;32.60;56.10;;;;;;5095435;28;20043;-74
2022/08/07 12:59:51;;;;;;;8.00;1.88;;;32.60;54.70;;;;;;5087263;28;20493;-74
2022/08/07 13:02:41;;;;;;;7.15;1.92;;;32.60;54.70;;;;;;5094216;28;20044;-74
2022/08/07 13:05:06;;;;;;;2.17;1.55;;;32.80;55.50;;;;;;5094732;28;20031;-74
2022/08/07 13:08:09;;;;;;;4.30;1.80;;;33.00;55.10;;;;;;5092182;28;20025;-74
2022/08/07 13:11:07;;;;;;;5.93;2.17;;;33.10;55.10;;;;;;5094737;28;20028;-74
2022/08/07 13:14:15;;;;;;;3.92;1.70;;;33.10;55.30;;;;;;5094576;28;20028;-73
2022/08/07 13:17:18;;;;;;;3.33;1.67;;;33.20;54.60;;;;;;5089715;28;20027;-74
2022/08/07 13:19:55;;;;;;;5.72;1.50;;;33.30;52.50;;;;;;5098292;28;20024;-74
2022/08/07 13:22:59;;;;;;;5.80;1.73;;;33.20;52.70;;;;;;5096813;28;20020;-74
2022/08/07 13:25:38;;;;;;;3.45;1.40;;;33.50;53.70;;;;;;5081092;28;20122;-74
2022/08/07 13:28:09;;;;;;;7.72;1.83;;;33.60;53.10;;;;;;5096452;28;20059;-74